Voorschoten, Netherlands
Current Conditions -  °F | °C
As of 5:55 AM on Thursday 25 Dec 2014 (Local Time) from EHRD Reporting Station
Overcast Overcast  
Wind Chill: 37°   Ceiling: 3000
Heat Index: 45°   Visibility: 6mi
Dew Point: 39°   Wind: 16mph
Humidity: 81%   Direction: 280°W
Pressure: 30.12"   Gusts: NA
Location:  52.13°N, 4.45°E
Report Text: EHRD 250455Z AUTO 28014KT 240V310 9999 FEW024 BKN030 OVC03407/04 Q1020 NOSIG
Loading
Personal Weather Stations






























Interactive Weather Map New forecast layout! Learn more

10-Day Weather Forecast

Advertisements
Track Severe Weather on mobile